Time;durP1;ratioP1;P1;durP2;ratioP2;P2;SDS_P1;SDS_P2;PMS_P1;PMS_P2;Temp;Humidity;BMP_temperature;BMP_pressure;BME280_temperature;BME280_humidity;BME280_pressure;Samples;Min_cycle;Max_cycle;Signal;HPM_P1;HPM_P2
2022/12/24 00:00:36;;;;;;;48.42;18.50;;;;;;;;;;5001228;28;20594;-76
2022/12/24 00:03:04;;;;;;;72.70;19.17;;;;;;;;;;5000097;28;20509;-79
2022/12/24 00:05:32;;;;;;;53.05;18.05;;;;;;;;;;5000924;28;20067;-79
2022/12/24 00:08:00;;;;;;;48.78;17.98;;;;;;;;;;5001549;28;20061;-77
2022/12/24 00:10:27;;;;;;;52.67;18.50;;;;;;;;;;5001981;28;20072;-78
2022/12/24 00:12:54;;;;;;;71.30;19.00;;;;;;;;;;5005602;28;20524;-79
2022/12/24 00:15:22;;;;;;;92.60;20.83;;;;;;;;;;4998260;28;20041;-78
2022/12/24 00:17:49;;;;;;;94.22;21.17;;;;;;;;;;4998117;28;20492;-79
2022/12/24 00:20:16;;;;;;;52.90;19.15;;;;;;;;;;4994930;28;20057;-78
2022/12/24 00:22:45;;;;;;;69.38;19.95;;;;;;;;;;5000488;28;20056;-79
2022/12/24 00:25:12;;;;;;;82.80;21.15;;;;;;;;;;4984865;28;20058;-76
2022/12/24 00:27:39;;;;;;;61.70;19.98;;;;;;;;;;4999342;28;20068;-77
2022/12/24 00:30:07;;;;;;;110.93;23.13;;;;;;;;;;4989854;28;20077;-77
2022/12/24 00:32:36;;;;;;;74.15;20.17;;;;;;;;;;4996444;28;20137;-79
2022/12/24 00:35:03;;;;;;;89.43;22.77;;;;;;;;;;4993680;28;20057;-78
2022/12/24 00:37:31;;;;;;;107.38;23.10;;;;;;;;;;4996614;28;20045;-79
2022/12/24 00:39:59;;;;;;;162.80;23.45;;;;;;;;;;5003070;28;20084;-79
2022/12/24 00:42:27;;;;;;;106.90;23.38;;;;;;;;;;4999793;28;20562;-78
2022/12/24 00:44:54;;;;;;;73.07;21.17;;;;;;;;;;4992773;28;20049;-78
2022/12/24 00:47:21;;;;;;;107.88;23.85;;;;;;;;;;4997643;28;20049;-77
2022/12/24 00:49:48;;;;;;;92.88;22.60;;;;;;;;;;4995494;28;20490;-79
2022/12/24 00:52:16;;;;;;;100.15;23.27;;;;;;;;;;4996728;28;20053;-77
2022/12/24 00:54:43;;;;;;;114.03;23.58;;;;;;;;;;4993074;28;20048;-79
2022/12/24 00:57:11;;;;;;;130.18;22.90;;;;;;;;;;4999423;28;20496;-78
2022/12/24 00:59:39;;;;;;;185.75;25.90;;;;;;;;;;5002845;28;20053;-78
2022/12/24 01:02:06;;;;;;;86.03;22.55;;;;;;;;;;4993174;28;20053;-77
2022/12/24 01:07:19;;;;;;;145.00;24.35;;;;;;;;;;5004463;28;20144;-77
2022/12/24 01:09:46;;;;;;;125.47;23.05;;;;;;;;;;4993362;28;20108;-78
2022/12/24 01:12:14;;;;;;;115.60;22.83;;;;;;;;;;4991545;28;20145;-78
2022/12/24 01:14:42;;;;;;;64.15;20.50;;;;;;;;;;5003292;28;20071;-77
2022/12/24 01:17:10;;;;;;;109.80;23.90;;;;;;;;;;4999795;28;20468;-78
2022/12/24 01:19:37;;;;;;;109.55;22.55;;;;;;;;;;4997374;28;20137;-77
2022/12/24 01:22:04;;;;;;;90.72;22.27;;;;;;;;;;5005010;28;20620;-79
2022/12/24 01:24:32;;;;;;;213.25;26.13;;;;;;;;;;5004404;28;20581;-77
2022/12/24 01:26:59;;;;;;;138.70;25.17;;;;;;;;;;4999870;28;20560;-76
2022/12/24 01:29:28;;;;;;;146.65;26.05;;;;;;;;;;5004869;28;20053;-79
2022/12/24 01:31:55;;;;;;;145.60;26.40;;;;;;;;;;4997338;28;20050;-77
2022/12/24 01:34:22;;;;;;;108.30;23.92;;;;;;;;;;4999747;28;20060;-78
2022/12/24 01:36:49;;;;;;;123.57;23.75;;;;;;;;;;5000261;28;20208;-78
2022/12/24 01:39:17;;;;;;;100.25;22.48;;;;;;;;;;5002216;28;20142;-78
2022/12/24 01:44:31;;;;;;;108.63;23.70;;;;;;;;;;4996381;28;20049;-78
2022/12/24 01:47:03;;;;;;;82.30;23.27;;;;;;;;;;5001078;28;20049;-78
2022/12/24 01:49:31;;;;;;;118.93;23.85;;;;;;;;;;4998357;28;20054;-77
2022/12/24 01:52:01;;;;;;;76.93;20.80;;;;;;;;;;4996661;28;20056;-79
2022/12/24 01:54:30;;;;;;;94.93;24.27;;;;;;;;;;4992032;28;20397;-78
2022/12/24 01:56:59;;;;;;;150.98;25.08;;;;;;;;;;4996099;28;20068;-78
2022/12/24 01:59:26;;;;;;;74.03;22.23;;;;;;;;;;5003675;28;20416;-78
2022/12/24 02:01:55;;;;;;;97.60;22.15;;;;;;;;;;4991667;28;20054;-77
2022/12/24 02:04:29;;;;;;;104.25;25.25;;;;;;;;;;5002481;28;20041;-76
2022/12/24 02:06:56;;;;;;;187.38;25.63;;;;;;;;;;4995400;28;20783;-76
2022/12/24 02:09:24;;;;;;;117.97;24.77;;;;;;;;;;5001869;28;20045;-76
2022/12/24 02:11:51;;;;;;;204.98;27.75;;;;;;;;;;5006213;28;20603;-78
2022/12/24 02:14:19;;;;;;;86.55;23.83;;;;;;;;;;4995347;28;20042;-79
2022/12/24 02:16:49;;;;;;;64.32;21.88;;;;;;;;;;5000946;28;20054;-76
2022/12/24 02:19:29;;;;;;;99.88;24.83;;;;;;;;;;5006163;28;20045;-77
2022/12/24 02:22:02;;;;;;;71.05;22.52;;;;;;;;;;5001527;28;20057;-77
2022/12/24 02:24:50;;;;;;;65.47;21.48;;;;;;;;;;5004773;28;20049;-79
2022/12/24 02:27:24;;;;;;;59.92;21.98;;;;;;;;;;5004336;28;20052;-76
2022/12/24 02:29:51;;;;;;;;;;;;;;;;;;4993017;28;20643;-78
2022/12/24 02:32:22;;;;;;;53.17;21.67;;;;;;;;;;5035165;28;19921;-77
2022/12/24 02:34:53;;;;;;;56.28;21.70;;;;;;;;;;5004386;28;20524;-77
2022/12/24 02:37:23;;;;;;;68.68;23.27;;;;;;;;;;5002885;28;20412;-79
2022/12/24 02:39:52;;;;;;;57.58;23.42;;;;;;;;;;5001644;28;20500;-79
2022/12/24 02:42:21;;;;;;;53.63;20.90;;;;;;;;;;5003258;28;20056;-78
2022/12/24 02:44:50;;;;;;;51.95;21.42;;;;;;;;;;5035044;28;20692;-78
2022/12/24 02:47:18;;;;;;;51.72;20.40;;;;;;;;;;5003846;28;20061;-80
2022/12/24 02:49:48;;;;;;;53.65;20.95;;;;;;;;;;5004956;28;20068;-78
2022/12/24 02:52:32;;;;;;;43.00;18.77;;;;;;;;;;5004919;28;20049;-80
2022/12/24 02:55:01;;;;;;;46.35;18.55;;;;;;;;;;5002956;28;20622;-79
2022/12/24 02:57:32;;;;;;;41.58;17.25;;;;;;;;;;5037111;28;20069;-78
2022/12/24 03:00:01;;;;;;;40.35;16.98;;;;;;;;;;5002717;28;20057;-78
2022/12/24 03:02:35;;;;;;;36.03;14.40;;;;;;;;;;4998255;28;20054;-78
2022/12/24 03:05:09;;;;;;;36.85;14.90;;;;;;;;;;4999046;28;20057;-79
2022/12/24 03:07:39;;;;;;;38.80;13.15;;;;;;;;;;4988275;28;20050;-75
2022/12/24 03:10:15;;;;;;;46.17;14.23;;;;;;;;;;5003584;28;20053;-79
2022/12/24 03:12:45;;;;;;;43.50;11.65;;;;;;;;;;5003724;28;20055;-78
2022/12/24 03:15:13;;;;;;;30.75;11.25;;;;;;;;;;5004633;28;20063;-79
2022/12/24 03:17:42;;;;;;;28.40;8.13;;;;;;;;;;4992885;28;20051;-79
2022/12/24 03:20:12;;;;;;;28.35;7.05;;;;;;;;;;4998383;28;20092;-81
2022/12/24 03:22:40;;;;;;;23.88;6.82;;;;;;;;;;5001907;28;20053;-80
2022/12/24 03:25:07;;;;;;;24.80;7.70;;;;;;;;;;5003408;28;20061;-76
2022/12/24 03:27:36;;;;;;;21.83;7.20;;;;;;;;;;5004164;28;20042;-79
2022/12/24 03:30:04;;;;;;;24.38;7.25;;;;;;;;;;5002392;28;20049;-77
2022/12/24 03:32:32;;;;;;;24.63;8.23;;;;;;;;;;5003182;28;20053;-79
2022/12/24 03:35:00;;;;;;;23.23;7.85;;;;;;;;;;5000802;28;20076;-78
2022/12/24 03:37:29;;;;;;;34.33;8.63;;;;;;;;;;5002411;28;20057;-83
2022/12/24 03:39:56;;;;;;;28.50;9.05;;;;;;;;;;5003690;28;20056;-79
2022/12/24 03:42:23;;;;;;;35.83;9.07;;;;;;;;;;5002983;28;20148;-78
2022/12/24 03:44:50;;;;;;;37.28;9.27;;;;;;;;;;4998967;28;20052;-82
2022/12/24 03:47:18;;;;;;;33.33;9.85;;;;;;;;;;4996541;28;20056;-77
2022/12/24 03:49:45;;;;;;;40.28;10.05;;;;;;;;;;5000470;28;20436;-82
2022/12/24 03:52:12;;;;;;;32.78;9.95;;;;;;;;;;5000535;28;20057;-77
2022/12/24 03:54:41;;;;;;;49.03;8.40;;;;;;;;;;5002585;28;20524;-78
2022/12/24 03:57:08;;;;;;;44.35;7.85;;;;;;;;;;5001871;28;20049;-78
2022/12/24 03:59:35;;;;;;;49.65;7.25;;;;;;;;;;5002048;28;20053;-77
2022/12/24 04:02:03;;;;;;;41.80;7.22;;;;;;;;;;5000415;28;20080;-79
2022/12/24 04:04:32;;;;;;;40.42;6.82;;;;;;;;;;5006864;28;20057;-81
2022/12/24 04:06:59;;;;;;;43.72;6.65;;;;;;;;;;5024299;28;20809;-79
2022/12/24 04:09:26;;;;;;;45.10;6.28;;;;;;;;;;5001456;28;20046;-79
2022/12/24 04:11:55;;;;;;;50.72;6.05;;;;;;;;;;5003587;28;20047;-81
2022/12/24 04:14:22;;;;;;;45.60;5.60;;;;;;;;;;5017600;28;20053;-76
2022/12/24 04:16:49;;;;;;;53.55;6.18;;;;;;;;;;5001792;28;20053;-82
2022/12/24 04:19:17;;;;;;;47.03;5.80;;;;;;;;;;5001603;28;20555;-82
2022/12/24 04:21:44;;;;;;;51.95;7.32;;;;;;;;;;4999473;28;20157;-82
2022/12/24 04:24:12;;;;;;;53.05;5.78;;;;;;;;;;5005265;28;20049;-79
2022/12/24 04:26:39;;;;;;;58.47;6.93;;;;;;;;;;5034685;28;20111;-82
2022/12/24 04:29:08;;;;;;;58.53;5.60;;;;;;;;;;5001036;28;20045;-79
2022/12/24 04:31:35;;;;;;;58.92;5.97;;;;;;;;;;4999956;28;20058;-83
2022/12/24 04:34:02;;;;;;;51.88;6.40;;;;;;;;;;5001624;28;20042;-80
2022/12/24 04:36:29;;;;;;;48.75;5.65;;;;;;;;;;4993232;28;20058;-79
2022/12/24 04:38:57;;;;;;;72.15;7.35;;;;;;;;;;5002404;28;20061;-83
2022/12/24 04:41:24;;;;;;;63.90;5.80;;;;;;;;;;5004412;28;20057;-79
2022/12/24 04:43:52;;;;;;;61.45;6.35;;;;;;;;;;4995895;28;20052;-81
2022/12/24 04:46:21;;;;;;;54.67;5.72;;;;;;;;;;5003119;28;20054;-78
2022/12/24 04:48:49;;;;;;;50.53;5.95;;;;;;;;;;4991832;28;20520;-78
2022/12/24 04:51:17;;;;;;;67.45;6.80;;;;;;;;;;4991099;28;20064;-81
2022/12/24 04:53:45;;;;;;;62.25;6.43;;;;;;;;;;4994934;28;20160;-80
2022/12/24 04:56:13;;;;;;;55.58;5.30;;;;;;;;;;5002585;28;20057;-80
2022/12/24 04:58:40;;;;;;;45.40;5.25;;;;;;;;;;5001356;28;20060;-82
2022/12/24 05:01:08;;;;;;;63.30;6.55;;;;;;;;;;5000829;28;20084;-79
2022/12/24 05:03:37;;;;;;;64.63;6.10;;;;;;;;;;5001510;28;20049;-78
2022/12/24 05:06:04;;;;;;;62.03;5.72;;;;;;;;;;5012812;28;20053;-79
2022/12/24 05:08:32;;;;;;;69.22;7.60;;;;;;;;;;4999218;28;20041;-79
2022/12/24 05:11:00;;;;;;;60.58;6.90;;;;;;;;;;5001723;28;20063;-80
2022/12/24 05:13:27;;;;;;;52.45;7.10;;;;;;;;;;5003970;28;20911;-79
2022/12/24 05:15:55;;;;;;;65.90;7.30;;;;;;;;;;4994415;28;20056;-81
2022/12/24 05:18:23;;;;;;;72.60;6.65;;;;;;;;;;5008161;28;20116;-81
2022/12/24 05:20:52;;;;;;;64.05;6.82;;;;;;;;;;4997967;28;20085;-82
2022/12/24 05:26:23;;;;;;;57.13;6.43;;;;;;;;;;4999890;28;20053;-82
2022/12/24 05:28:51;;;;;;;68.25;8.20;;;;;;;;;;5009491;28;20046;-83
2022/12/24 05:31:19;;;;;;;55.38;6.97;;;;;;;;;;4991391;28;20054;-80
2022/12/24 05:33:46;;;;;;;60.47;8.52;;;;;;;;;;4998684;28;20476;-84
2022/12/24 05:36:15;;;;;;;73.28;8.23;;;;;;;;;;4997398;28;20470;-83
2022/12/24 05:38:43;;;;;;;65.65;7.63;;;;;;;;;;4993878;28;20050;-81
2022/12/24 05:41:10;;;;;;;75.13;7.97;;;;;;;;;;4993370;28;20716;-78
2022/12/24 05:43:38;;;;;;;61.60;6.18;;;;;;;;;;4987599;28;20057;-79
2022/12/24 05:46:07;;;;;;;74.22;7.18;;;;;;;;;;4990555;28;20449;-81
2022/12/24 05:48:34;;;;;;;57.05;6.63;;;;;;;;;;4990010;28;20049;-80
2022/12/24 05:51:04;;;;;;;68.38;7.72;;;;;;;;;;4996654;28;20128;-82
2022/12/24 05:53:33;;;;;;;70.03;8.13;;;;;;;;;;4995198;28;20520;-81
2022/12/24 05:56:03;;;;;;;73.38;7.40;;;;;;;;;;4994000;28;20096;-81
2022/12/24 05:58:31;;;;;;;76.43;7.22;;;;;;;;;;5000071;28;20113;-81
2022/12/24 06:00:58;;;;;;;64.90;6.63;;;;;;;;;;5000438;28;20480;-79
2022/12/24 06:03:25;;;;;;;55.55;6.68;;;;;;;;;;4997047;28;20063;-76
2022/12/24 06:05:58;;;;;;;80.68;7.72;;;;;;;;;;4997636;28;20057;-80
2022/12/24 06:08:26;;;;;;;73.07;7.35;;;;;;;;;;5005605;28;20080;-82
2022/12/24 06:10:56;;;;;;;66.30;10.05;;;;;;;;;;5006882;28;20056;-79
2022/12/24 06:13:24;;;;;;;59.60;6.57;;;;;;;;;;5034717;28;20050;-80
2022/12/24 06:15:51;;;;;;;70.63;6.88;;;;;;;;;;5004336;28;20057;-80
2022/12/24 06:18:18;;;;;;;74.07;6.55;;;;;;;;;;4995912;28;20137;-81
2022/12/24 06:20:46;;;;;;;62.53;7.35;;;;;;;;;;4997969;28;20408;-75
2022/12/24 06:23:13;;;;;;;57.95;6.68;;;;;;;;;;5000085;28;20760;-81
2022/12/24 06:25:41;;;;;;;68.90;6.95;;;;;;;;;;5004210;28;20079;-81
2022/12/24 06:28:09;;;;;;;64.10;6.55;;;;;;;;;;5001837;28;20065;-80
2022/12/24 06:30:37;;;;;;;55.88;6.32;;;;;;;;;;5009840;28;20065;-82
2022/12/24 06:33:04;;;;;;;67.82;6.93;;;;;;;;;;5003055;28;20057;-79
2022/12/24 06:35:31;;;;;;;70.10;7.88;;;;;;;;;;5006554;28;20107;-80
2022/12/24 06:37:59;;;;;;;81.25;7.20;;;;;;;;;;5002365;28;20045;-79
2022/12/24 06:40:26;;;;;;;73.97;7.90;;;;;;;;;;5004514;28;20105;-79
2022/12/24 06:42:54;;;;;;;64.32;7.22;;;;;;;;;;4993181;28;20140;-78
2022/12/24 06:45:22;;;;;;;61.80;5.43;;;;;;;;;;5004197;28;20053;-82
2022/12/24 06:47:50;;;;;;;51.67;6.05;;;;;;;;;;5004499;28;20041;-79
2022/12/24 06:50:17;;;;;;;69.63;6.75;;;;;;;;;;5033522;28;20477;-79
2022/12/24 06:52:44;;;;;;;75.43;7.40;;;;;;;;;;5006836;28;20416;-81
2022/12/24 06:55:12;;;;;;;56.38;5.63;;;;;;;;;;5002589;28;20056;-82
2022/12/24 06:57:39;;;;;;;62.90;6.68;;;;;;;;;;5001876;28;20046;-81
2022/12/24 07:00:07;;;;;;;84.57;9.30;;;;;;;;;;4999739;28;20049;-79
2022/12/24 07:02:36;;;;;;;72.72;6.50;;;;;;;;;;5003950;28;20057;-79
2022/12/24 07:05:03;;;;;;;63.17;6.43;;;;;;;;;;5001593;28;20060;-79
2022/12/24 07:07:30;;;;;;;64.13;6.15;;;;;;;;;;5003845;28;20085;-79
2022/12/24 07:09:58;;;;;;;72.45;5.85;;;;;;;;;;5002732;28;20072;-82
2022/12/24 07:12:25;;;;;;;67.63;6.00;;;;;;;;;;5005496;28;20072;-84
2022/12/24 07:14:52;;;;;;;61.03;5.78;;;;;;;;;;4999480;28;20448;-78
2022/12/24 07:17:19;;;;;;;72.55;6.20;;;;;;;;;;5005970;28;20041;-81
2022/12/24 07:19:48;;;;;;;70.53;7.32;;;;;;;;;;4985989;28;20065;-79
2022/12/24 07:22:15;;;;;;;60.88;6.05;;;;;;;;;;4986272;28;20046;-82
2022/12/24 07:24:43;;;;;;;73.38;6.50;;;;;;;;;;4971742;28;20481;-80
2022/12/24 07:27:10;;;;;;;57.60;6.47;;;;;;;;;;4976676;28;20045;-79
2022/12/24 07:29:37;;;;;;;75.22;5.95;;;;;;;;;;4977696;28;20042;-78
2022/12/24 07:32:05;;;;;;;51.67;6.40;;;;;;;;;;4986314;28;20064;-78
2022/12/24 07:34:32;;;;;;;58.25;7.07;;;;;;;;;;4980791;28;20042;-79
2022/12/24 07:37:01;;;;;;;69.68;6.75;;;;;;;;;;4982805;28;20579;-77
2022/12/24 07:39:28;;;;;;;71.45;7.43;;;;;;;;;;4974837;28;20050;-75
2022/12/24 07:41:55;;;;;;;51.88;6.70;;;;;;;;;;4978426;28;20061;-80
2022/12/24 07:44:23;;;;;;;64.13;6.65;;;;;;;;;;4982423;28;20046;-78
2022/12/24 07:46:51;;;;;;;63.30;7.18;;;;;;;;;;4987626;28;20060;-79
2022/12/24 07:49:18;;;;;;;63.15;6.80;;;;;;;;;;4981025;28;20046;-76
2022/12/24 07:51:45;;;;;;;67.60;6.35;;;;;;;;;;4973095;28;20198;-77
2022/12/24 07:54:14;;;;;;;58.38;5.35;;;;;;;;;;4976851;28;20057;-75
2022/12/24 07:56:41;;;;;;;69.70;7.40;;;;;;;;;;4978979;28;20058;-73
2022/12/24 07:59:08;;;;;;;63.15;6.57;;;;;;;;;;4980256;28;20151;-77
2022/12/24 08:01:36;;;;;;;59.10;5.38;;;;;;;;;;4976006;28;20065;-76
2022/12/24 08:04:03;;;;;;;58.10;6.43;;;;;;;;;;4975053;28;20754;-76
2022/12/24 08:06:30;;;;;;;57.58;7.25;;;;;;;;;;4977283;28;20054;-77
2022/12/24 08:08:57;;;;;;;62.53;5.88;;;;;;;;;;4974412;28;20796;-77
2022/12/24 08:11:26;;;;;;;52.72;6.30;;;;;;;;;;4974234;28;20053;-78
2022/12/24 08:13:53;;;;;;;71.95;5.93;;;;;;;;;;4981506;28;20053;-78
2022/12/24 08:16:21;;;;;;;60.45;7.32;;;;;;;;;;4974637;28;20046;-79
2022/12/24 08:18:48;;;;;;;52.67;5.65;;;;;;;;;;4975517;28;20125;-79
2022/12/24 08:21:15;;;;;;;71.63;6.13;;;;;;;;;;4996749;28;20544;-77
2022/12/24 08:23:43;;;;;;;77.50;6.13;;;;;;;;;;4998762;28;20688;-78
2022/12/24 08:26:10;;;;;;;67.80;6.70;;;;;;;;;;5010064;28;20061;-76
2022/12/24 08:28:39;;;;;;;48.55;4.85;;;;;;;;;;5010372;28;20045;-75
2022/12/24 08:31:07;;;;;;;48.15;6.90;;;;;;;;;;5000267;28;20121;-75
2022/12/24 08:33:34;;;;;;;59.55;6.25;;;;;;;;;;4996195;28;20059;-77
2022/12/24 08:36:02;;;;;;;57.83;6.93;;;;;;;;;;4988816;28;20461;-76
2022/12/24 08:38:29;;;;;;;48.70;4.78;;;;;;;;;;4994220;28;20058;-76
2022/12/24 08:40:57;;;;;;;68.13;6.40;;;;;;;;;;4997464;28;20132;-75
2022/12/24 08:43:25;;;;;;;54.28;6.70;;;;;;;;;;4996066;28;20050;-77
2022/12/24 08:45:54;;;;;;;57.38;6.13;;;;;;;;;;5000134;28;20055;-74
2022/12/24 08:48:21;;;;;;;69.03;5.90;;;;;;;;;;4994178;28;20060;-77
2022/12/24 08:50:48;;;;;;;58.60;6.88;;;;;;;;;;4984877;28;20058;-76
2022/12/24 08:53:16;;;;;;;62.83;5.63;;;;;;;;;;4998961;28;20496;-76
2022/12/24 08:55:43;;;;;;;72.25;6.80;;;;;;;;;;4993591;28;20053;-78
2022/12/24 08:58:10;;;;;;;61.00;6.35;;;;;;;;;;4990800;28;20424;-78
2022/12/24 09:00:38;;;;;;;51.17;5.90;;;;;;;;;;4992502;28;20056;-79
2022/12/24 09:03:06;;;;;;;71.80;7.00;;;;;;;;;;5001010;28;20049;-76
2022/12/24 09:05:33;;;;;;;52.25;5.78;;;;;;;;;;5000640;28;20704;-78
2022/12/24 09:08:01;;;;;;;64.18;5.78;;;;;;;;;;5002467;28;20056;-78
2022/12/24 09:10:28;;;;;;;62.33;6.57;;;;;;;;;;4997573;28;20049;-77
2022/12/24 09:12:55;;;;;;;53.83;6.03;;;;;;;;;;5004400;28;20061;-79
2022/12/24 09:15:23;;;;;;;56.50;5.78;;;;;;;;;;5005587;28;20132;-78
2022/12/24 09:17:50;;;;;;;54.85;6.72;;;;;;;;;;4998108;28;20172;-78
2022/12/24 09:20:19;;;;;;;63.53;6.35;;;;;;;;;;5000546;28;20056;-78
2022/12/24 09:22:46;;;;;;;62.33;7.40;;;;;;;;;;4996709;28;20055;-79
2022/12/24 09:25:13;;;;;;;55.47;5.75;;;;;;;;;;5000742;28;20104;-77
2022/12/24 09:27:41;;;;;;;54.67;5.70;;;;;;;;;;4991174;28;20049;-78
2022/12/24 09:30:08;;;;;;;65.40;6.47;;;;;;;;;;5008169;28;20412;-75
2022/12/24 09:32:36;;;;;;;59.92;6.97;;;;;;;;;;5008134;28;20560;-79
2022/12/24 09:35:03;;;;;;;54.13;6.32;;;;;;;;;;4999055;28;20054;-79
2022/12/24 09:37:32;;;;;;;60.00;7.63;;;;;;;;;;5000701;28;20771;-77
2022/12/24 09:39:59;;;;;;;49.13;6.03;;;;;;;;;;4992774;28;20725;-78
2022/12/24 09:42:33;;;;;;;55.17;6.43;;;;;;;;;;4995640;28;20053;-77
2022/12/24 09:45:03;;;;;;;58.22;6.70;;;;;;;;;;4997633;28;20049;-77
2022/12/24 09:47:32;;;;;;;64.60;7.28;;;;;;;;;;4997364;28;20057;-78
2022/12/24 09:50:02;;;;;;;56.75;5.32;;;;;;;;;;4990694;28;20042;-76
2022/12/24 09:52:31;;;;;;;64.10;5.68;;;;;;;;;;5005594;28;20156;-79
2022/12/24 09:55:04;;;;;;;51.80;5.65;;;;;;;;;;5004653;28;20523;-78
2022/12/24 09:57:35;;;;;;;59.15;6.63;;;;;;;;;;5009955;28;20499;-77
2022/12/24 10:00:03;;;;;;;55.15;6.03;;;;;;;;;;5000568;28;20041;-78
2022/12/24 10:02:32;;;;;;;52.63;5.65;;;;;;;;;;5003795;28;20128;-77
2022/12/24 10:05:00;;;;;;;56.92;6.50;;;;;;;;;;5005469;28;20579;-78
2022/12/24 10:07:32;;;;;;;45.20;5.25;;;;;;;;;;5004061;28;20130;-78
2022/12/24 10:10:03;;;;;;;49.55;6.38;;;;;;;;;;5004263;28;20688;-78
2022/12/24 10:12:35;;;;;;;48.03;5.55;;;;;;;;;;5006125;28;20050;-76
2022/12/24 10:15:08;;;;;;;73.80;6.85;;;;;;;;;;4998679;28;20053;-78
2022/12/24 10:17:46;;;;;;;49.25;6.28;;;;;;;;;;4996004;28;20087;-77
2022/12/24 10:20:23;;;;;;;47.92;5.95;;;;;;;;;;5001993;28;20058;-79
2022/12/24 10:22:54;;;;;;;63.67;6.13;;;;;;;;;;4997240;28;20059;-77
2022/12/24 10:25:26;;;;;;;54.50;5.60;;;;;;;;;;4996010;28;20077;-78
2022/12/24 10:27:55;;;;;;;52.60;5.93;;;;;;;;;;5002225;28;20053;-77
2022/12/24 10:30:24;;;;;;;45.28;6.38;;;;;;;;;;5002863;28;20045;-80
2022/12/24 10:32:52;;;;;;;60.50;6.05;;;;;;;;;;4993733;28;20076;-78
2022/12/24 10:35:22;;;;;;;54.40;4.63;;;;;;;;;;4998284;28;20057;-77
2022/12/24 10:37:51;;;;;;;58.40;5.68;;;;;;;;;;5007518;28;20053;-78
2022/12/24 10:40:23;;;;;;;63.95;5.90;;;;;;;;;;5001386;28;20523;-77
2022/12/24 10:42:51;;;;;;;64.50;6.65;;;;;;;;;;5002414;28;20109;-76
2022/12/24 10:45:21;;;;;;;48.63;6.15;;;;;;;;;;5002656;28;20550;-76
2022/12/24 10:47:50;;;;;;;39.65;5.43;;;;;;;;;;4999822;28;20661;-77
2022/12/24 10:50:19;;;;;;;50.17;5.35;;;;;;;;;;4998814;28;20049;-80
2022/12/24 10:52:47;;;;;;;44.30;5.63;;;;;;;;;;4999639;28;20049;-79
2022/12/24 10:55:23;;;;;;;43.35;4.90;;;;;;;;;;4999018;28;20049;-79
2022/12/24 10:58:00;;;;;;;37.40;4.93;;;;;;;;;;5003656;28;20050;-79
2022/12/24 11:00:28;;;;;;;45.15;5.28;;;;;;;;;;4986000;28;20058;-78
2022/12/24 11:03:07;;;;;;;35.33;5.03;;;;;;;;;;5007412;28;20068;-78
2022/12/24 11:05:36;;;;;;;46.50;5.28;;;;;;;;;;5002484;28;20061;-80
2022/12/24 11:08:04;;;;;;;34.25;5.07;;;;;;;;;;4999845;28;20497;-79
2022/12/24 11:10:31;;;;;;;42.70;4.60;;;;;;;;;;4996170;28;20063;-79
2022/12/24 11:13:00;;;;;;;33.72;4.30;;;;;;;;;;4999733;28;20617;-79
2022/12/24 11:15:29;;;;;;;37.40;4.35;;;;;;;;;;4999558;28;20714;-79
2022/12/24 11:17:58;;;;;;;41.58;5.57;;;;;;;;;;4994064;28;20050;-79
2022/12/24 11:20:28;;;;;;;35.95;4.35;;;;;;;;;;5001865;28;20060;-78
2022/12/24 11:22:55;;;;;;;33.78;3.90;;;;;;;;;;5012961;28;20137;-79
2022/12/24 11:25:26;;;;;;;29.40;5.03;;;;;;;;;;5002318;28;20584;-78
2022/12/24 11:27:54;;;;;;;36.30;4.43;;;;;;;;;;4995221;28;20053;-78
2022/12/24 11:30:27;;;;;;;31.98;4.75;;;;;;;;;;4999929;28;20050;-77
2022/12/24 11:33:14;;;;;;;21.02;4.05;;;;;;;;;;5002547;28;20128;-71
2022/12/24 11:35:44;;;;;;;28.25;3.72;;;;;;;;;;5002777;28;20049;-79
2022/12/24 11:38:12;;;;;;;35.67;4.88;;;;;;;;;;5010376;28;20435;-79
2022/12/24 11:40:42;;;;;;;34.25;4.78;;;;;;;;;;5009397;28;20060;-80
2022/12/24 11:43:14;;;;;;;29.17;3.53;;;;;;;;;;5000442;28;20064;-81
2022/12/24 11:45:48;;;;;;;28.42;3.58;;;;;;;;;;5001075;28;20720;-79
2022/12/24 11:48:25;;;;;;;29.25;3.42;;;;;;;;;;5006181;28;20055;-79
2022/12/24 11:50:56;;;;;;;31.52;3.88;;;;;;;;;;5000003;28;20056;-73
2022/12/24 11:53:26;;;;;;;27.52;3.13;;;;;;;;;;5002624;28;20569;-73
2022/12/24 11:55:56;;;;;;;27.25;3.72;;;;;;;;;;5001841;28;20116;-73
2022/12/24 11:58:28;;;;;;;32.05;4.30;;;;;;;;;;5001744;28;20045;-73
2022/12/24 12:01:02;;;;;;;27.83;3.60;;;;;;;;;;5001022;28;20056;-73
2022/12/24 12:03:31;;;;;;;27.77;3.63;;;;;;;;;;5001196;28;20115;-74
2022/12/24 12:06:00;;;;;;;23.15;3.08;;;;;;;;;;5001715;28;20056;-73
2022/12/24 12:08:29;;;;;;;28.13;3.50;;;;;;;;;;5018949;28;20152;-74
2022/12/24 12:10:58;;;;;;;24.00;3.10;;;;;;;;;;5003484;28;20085;-73
2022/12/24 12:13:31;;;;;;;28.30;3.65;;;;;;;;;;5000321;28;20630;-73
2022/12/24 12:16:06;;;;;;;26.52;3.70;;;;;;;;;;4991809;28;20057;-73
2022/12/24 12:18:35;;;;;;;31.27;2.95;;;;;;;;;;4989767;28;20089;-73
2022/12/24 12:21:04;;;;;;;36.72;3.88;;;;;;;;;;4992280;28;20053;-74
2022/12/24 12:23:34;;;;;;;33.92;4.50;;;;;;;;;;4992523;28;20046;-73
2022/12/24 12:26:03;;;;;;;27.67;3.58;;;;;;;;;;4991644;28;20069;-75
2022/12/24 12:28:33;;;;;;;25.60;3.63;;;;;;;;;;4995638;28;20061;-74
2022/12/24 12:31:04;;;;;;;33.80;4.43;;;;;;;;;;4988468;28;20068;-73
2022/12/24 12:33:34;;;;;;;24.70;3.28;;;;;;;;;;4993928;28;20056;-73
2022/12/24 12:36:02;;;;;;;21.63;2.90;;;;;;;;;;4998229;28;20062;-74
2022/12/24 12:38:29;;;;;;;41.10;3.95;;;;;;;;;;5003902;28;20045;-73
2022/12/24 12:41:09;;;;;;;30.85;4.00;;;;;;;;;;5000121;28;20042;-73
2022/12/24 12:43:52;;;;;;;30.30;3.50;;;;;;;;;;4993553;28;20456;-74
2022/12/24 12:46:21;;;;;;;32.97;3.13;;;;;;;;;;5000849;28;20080;-74
2022/12/24 12:49:05;;;;;;;28.80;3.50;;;;;;;;;;5000052;28;20052;-74
2022/12/24 12:51:37;;;;;;;31.52;4.05;;;;;;;;;;5000679;28;20042;-74
2022/12/24 12:54:25;;;;;;;28.52;3.67;;;;;;;;;;4999162;28;20552;-74
2022/12/24 12:56:54;;;;;;;26.15;4.30;;;;;;;;;;4993056;28;20481;-74
2022/12/24 12:59:28;;;;;;;28.92;3.25;;;;;;;;;;5008446;28;20061;-74
2022/12/24 13:02:02;;;;;;;23.95;3.72;;;;;;;;;;5000339;28;20045;-74
2022/12/24 13:04:54;;;;;;;22.55;3.95;;;;;;;;;;5000972;28;20053;-74
2022/12/24 13:07:30;;;;;;;29.52;3.67;;;;;;;;;;5017150;28;20051;-74
2022/12/24 13:10:18;;;;;;;33.00;3.83;;;;;;;;;;5000429;28;20589;-74
2022/12/24 13:13:04;;;;;;;21.95;3.28;;;;;;;;;;4992031;28;20083;-74
2022/12/24 13:15:44;;;;;;;29.73;3.50;;;;;;;;;;5003140;28;20045;-74
2022/12/24 13:18:24;;;;;;;26.17;3.42;;;;;;;;;;5001446;28;20168;-74
2022/12/24 13:20:52;;;;;;;28.60;3.65;;;;;;;;;;4998262;28;20061;-74
2022/12/24 13:23:20;;;;;;;28.75;3.38;;;;;;;;;;5001518;28;20045;-74
2022/12/24 13:25:49;;;;;;;29.70;3.63;;;;;;;;;;4999043;28;20546;-72
2022/12/24 13:28:17;;;;;;;22.42;2.97;;;;;;;;;;5003491;28;20877;-76
2022/12/24 13:30:47;;;;;;;24.30;3.55;;;;;;;;;;4999790;28;20061;-75
2022/12/24 13:33:35;;;;;;;28.50;3.90;;;;;;;;;;4989167;28;20742;-74
2022/12/24 13:36:04;;;;;;;33.28;3.88;;;;;;;;;;4994008;28;20049;-74
2022/12/24 13:38:41;;;;;;;35.25;4.10;;;;;;;;;;4998220;28;20058;-74
2022/12/24 13:41:27;;;;;;;28.58;3.25;;;;;;;;;;4997308;28;20056;-73
2022/12/24 13:44:12;;;;;;;25.38;3.55;;;;;;;;;;4995896;28;20045;-73
2022/12/24 13:46:57;;;;;;;32.80;3.67;;;;;;;;;;4989130;28;20116;-73
2022/12/24 13:49:30;;;;;;;39.00;5.25;;;;;;;;;;5001856;28;20057;-73
2022/12/24 13:52:18;;;;;;;34.95;3.97;;;;;;;;;;4990490;28;20056;-72
2022/12/24 13:54:49;;;;;;;26.98;3.50;;;;;;;;;;5001588;28;20110;-72
2022/12/24 13:57:29;;;;;;;27.90;4.38;;;;;;;;;;4998767;28;20562;-72
2022/12/24 13:59:58;;;;;;;34.80;4.15;;;;;;;;;;5000954;28;20056;-73
2022/12/24 14:02:26;;;;;;;28.08;3.75;;;;;;;;;;4999638;28;20057;-73
2022/12/24 14:04:54;;;;;;;31.17;4.90;;;;;;;;;;5001247;28;20075;-73
2022/12/24 14:07:23;;;;;;;33.17;4.20;;;;;;;;;;4999838;28;20136;-73
2022/12/24 14:09:51;;;;;;;30.85;3.85;;;;;;;;;;5000281;28;20050;-73
2022/12/24 14:12:46;;;;;;;37.30;5.68;;;;;;;;;;5002751;28;20168;-73
2022/12/24 14:15:28;;;;;;;30.17;3.72;;;;;;;;;;5020965;28;20094;-73
2022/12/24 14:17:55;;;;;;;36.60;3.92;;;;;;;;;;4987147;28;20041;-73
2022/12/24 14:20:23;;;;;;;30.67;4.28;;;;;;;;;;5002608;28;20058;-73
2022/12/24 14:22:52;;;;;;;37.22;5.80;;;;;;;;;;5000821;28;20059;-73
2022/12/24 14:25:21;;;;;;;43.72;6.28;;;;;;;;;;5014181;28;20053;-73
2022/12/24 14:27:52;;;;;;;34.30;4.18;;;;;;;;;;5003255;28;20053;-73
2022/12/24 14:30:21;;;;;;;35.35;4.38;;;;;;;;;;5003977;28;20596;-74
2022/12/24 14:32:49;;;;;;;30.02;3.65;;;;;;;;;;5001854;28;20062;-74
2022/12/24 14:35:18;;;;;;;36.08;4.80;;;;;;;;;;5001104;28;20073;-74
2022/12/24 14:37:46;;;;;;;35.15;4.55;;;;;;;;;;4996757;28;20432;-73
2022/12/24 14:40:18;;;;;;;35.95;4.15;;;;;;;;;;5002865;28;20076;-74
2022/12/24 14:42:50;;;;;;;34.97;3.65;;;;;;;;;;4998790;28;20137;-73
2022/12/24 14:45:26;;;;;;;27.77;3.40;;;;;;;;;;4999964;28;20061;-73
2022/12/24 14:47:58;;;;;;;31.55;4.13;;;;;;;;;;4999539;28;20061;-74